sensor_id;sensor_type;location;lat;lon;timestamp;P1;durP1;ratioP1;P2;durP2;ratioP2
75512;SDS011;64090;49.770;18.760;2024-03-17T00:00:23;5.90;;;4.00;;
75512;SDS011;64090;49.770;18.760;2024-03-17T00:03:45;6.20;;;3.60;;
75512;SDS011;64090;49.770;18.760;2024-03-17T00:06:48;6.40;;;4.90;;
75512;SDS011;64090;49.770;18.760;2024-03-17T00:09:51;7.30;;;4.50;;
75512;SDS011;64090;49.770;18.760;2024-03-17T00:12:53;6.00;;;4.50;;
75512;SDS011;64090;49.770;18.760;2024-03-17T00:15:56;9.90;;;6.60;;
75512;SDS011;64090;49.770;18.760;2024-03-17T00:18:59;9.30;;;6.60;;
75512;SDS011;64090;49.770;18.760;2024-03-17T00:22:02;9.60;;;6.20;;
75512;SDS011;64090;49.770;18.760;2024-03-17T00:25:08;6.60;;;4.20;;
75512;SDS011;64090;49.770;18.760;2024-03-17T00:28:11;10.30;;;6.60;;
75512;SDS011;64090;49.770;18.760;2024-03-17T00:31:14;7.60;;;4.90;;
75512;SDS011;64090;49.770;18.760;2024-03-17T00:34:17;6.60;;;3.90;;
75512;SDS011;64090;49.770;18.760;2024-03-17T00:37:21;5.30;;;3.50;;
75512;SDS011;64090;49.770;18.760;2024-03-17T00:40:24;5.60;;;3.30;;
75512;SDS011;64090;49.770;18.760;2024-03-17T00:43:26;6.00;;;3.20;;
75512;SDS011;64090;49.770;18.760;2024-03-17T00:46:29;5.60;;;3.50;;
75512;SDS011;64090;49.770;18.760;2024-03-17T00:49:31;6.20;;;2.90;;
75512;SDS011;64090;49.770;18.760;2024-03-17T00:52:34;8.90;;;4.40;;
75512;SDS011;64090;49.770;18.760;2024-03-17T00:55:37;5.80;;;3.30;;
75512;SDS011;64090;49.770;18.760;2024-03-17T00:58:40;8.60;;;4.30;;
75512;SDS011;64090;49.770;18.760;2024-03-17T01:01:44;9.70;;;5.30;;
75512;SDS011;64090;49.770;18.760;2024-03-17T01:04:47;10.00;;;5.10;;
75512;SDS011;64090;49.770;18.760;2024-03-17T01:07:50;7.40;;;4.30;;
75512;SDS011;64090;49.770;18.760;2024-03-17T01:10:53;11.30;;;4.70;;
75512;SDS011;64090;49.770;18.760;2024-03-17T01:13:55;8.50;;;5.60;;
75512;SDS011;64090;49.770;18.760;2024-03-17T01:17:01;9.80;;;4.90;;
75512;SDS011;64090;49.770;18.760;2024-03-17T01:20:07;7.30;;;4.10;;
75512;SDS011;64090;49.770;18.760;2024-03-17T01:23:10;6.80;;;4.50;;
75512;SDS011;64090;49.770;18.760;2024-03-17T01:26:13;9.00;;;4.40;;
75512;SDS011;64090;49.770;18.760;2024-03-17T01:29:17;10.30;;;4.10;;
75512;SDS011;64090;49.770;18.760;2024-03-17T01:32:19;9.90;;;4.30;;
75512;SDS011;64090;49.770;18.760;2024-03-17T01:35:22;6.90;;;3.60;;
75512;SDS011;64090;49.770;18.760;2024-03-17T01:38:25;7.60;;;4.50;;
75512;SDS011;64090;49.770;18.760;2024-03-17T01:41:27;8.40;;;3.20;;
75512;SDS011;64090;49.770;18.760;2024-03-17T01:44:30;5.10;;;2.70;;
75512;SDS011;64090;49.770;18.760;2024-03-17T01:47:33;7.10;;;4.40;;
75512;SDS011;64090;49.770;18.760;2024-03-17T01:50:36;4.80;;;2.90;;
75512;SDS011;64090;49.770;18.760;2024-03-17T01:53:39;9.80;;;4.10;;
75512;SDS011;64090;49.770;18.760;2024-03-17T01:56:43;6.60;;;3.30;;
75512;SDS011;64090;49.770;18.760;2024-03-17T01:59:46;6.40;;;4.20;;
75512;SDS011;64090;49.770;18.760;2024-03-17T02:02:48;5.60;;;2.20;;
75512;SDS011;64090;49.770;18.760;2024-03-17T02:05:51;5.30;;;2.50;;
75512;SDS011;64090;49.770;18.760;2024-03-17T02:08:54;7.00;;;3.00;;
75512;SDS011;64090;49.770;18.760;2024-03-17T02:11:57;3.90;;;2.20;;
75512;SDS011;64090;49.770;18.760;2024-03-17T02:15:00;7.60;;;3.00;;
75512;SDS011;64090;49.770;18.760;2024-03-17T02:18:02;5.50;;;3.00;;
75512;SDS011;64090;49.770;18.760;2024-03-17T02:21:05;6.80;;;3.00;;
75512;SDS011;64090;49.770;18.760;2024-03-17T02:24:08;7.50;;;3.90;;
75512;SDS011;64090;49.770;18.760;2024-03-17T02:27:10;5.00;;;2.20;;
75512;SDS011;64090;49.770;18.760;2024-03-17T02:30:13;6.40;;;3.40;;
75512;SDS011;64090;49.770;18.760;2024-03-17T02:33:16;6.20;;;3.60;;
75512;SDS011;64090;49.770;18.760;2024-03-17T02:36:18;5.90;;;3.20;;
75512;SDS011;64090;49.770;18.760;2024-03-17T02:39:21;5.50;;;2.60;;
75512;SDS011;64090;49.770;18.760;2024-03-17T02:42:53;7.20;;;3.20;;
75512;SDS011;64090;49.770;18.760;2024-03-17T02:45:55;5.20;;;2.30;;
75512;SDS011;64090;49.770;18.760;2024-03-17T02:48:59;8.40;;;3.50;;
75512;SDS011;64090;49.770;18.760;2024-03-17T02:52:06;8.80;;;3.70;;
75512;SDS011;64090;49.770;18.760;2024-03-17T02:55:11;4.50;;;2.40;;
75512;SDS011;64090;49.770;18.760;2024-03-17T02:58:14;9.80;;;4.20;;
75512;SDS011;64090;49.770;18.760;2024-03-17T03:01:16;6.70;;;3.90;;
75512;SDS011;64090;49.770;18.760;2024-03-17T03:04:20;7.30;;;5.10;;
75512;SDS011;64090;49.770;18.760;2024-03-17T03:07:23;10.00;;;3.70;;
75512;SDS011;64090;49.770;18.760;2024-03-17T03:10:26;5.50;;;3.30;;
75512;SDS011;64090;49.770;18.760;2024-03-17T03:13:28;6.20;;;3.40;;
75512;SDS011;64090;49.770;18.760;2024-03-17T03:16:31;5.20;;;2.40;;
75512;SDS011;64090;49.770;18.760;2024-03-17T03:19:35;5.80;;;2.40;;
75512;SDS011;64090;49.770;18.760;2024-03-17T03:22:38;5.90;;;3.10;;
75512;SDS011;64090;49.770;18.760;2024-03-17T03:25:41;6.20;;;2.50;;
75512;SDS011;64090;49.770;18.760;2024-03-17T03:28:47;6.60;;;2.70;;
75512;SDS011;64090;49.770;18.760;2024-03-17T03:31:51;4.50;;;1.80;;
75512;SDS011;64090;49.770;18.760;2024-03-17T03:34:55;4.40;;;2.20;;
75512;SDS011;64090;49.770;18.760;2024-03-17T03:37:58;7.10;;;3.10;;
75512;SDS011;64090;49.770;18.760;2024-03-17T03:41:16;1.90;;;0.90;;
75512;SDS011;64090;49.770;18.760;2024-03-17T03:44:20;8.90;;;2.50;;
75512;SDS011;64090;49.770;18.760;2024-03-17T03:47:23;4.30;;;1.60;;
75512;SDS011;64090;49.770;18.760;2024-03-17T03:50:27;4.80;;;2.50;;
75512;SDS011;64090;49.770;18.760;2024-03-17T03:53:30;3.40;;;1.60;;
75512;SDS011;64090;49.770;18.760;2024-03-17T03:56:34;4.60;;;2.20;;
75512;SDS011;64090;49.770;18.760;2024-03-17T03:59:38;5.20;;;1.90;;
75512;SDS011;64090;49.770;18.760;2024-03-17T04:02:41;6.90;;;2.60;;
75512;SDS011;64090;49.770;18.760;2024-03-17T04:05:45;5.30;;;1.70;;
75512;SDS011;64090;49.770;18.760;2024-03-17T04:08:48;4.60;;;2.10;;
75512;SDS011;64090;49.770;18.760;2024-03-17T04:11:51;4.10;;;1.80;;
75512;SDS011;64090;49.770;18.760;2024-03-17T04:14:54;5.20;;;1.70;;
75512;SDS011;64090;49.770;18.760;2024-03-17T04:17:58;5.20;;;1.30;;
75512;SDS011;64090;49.770;18.760;2024-03-17T04:21:02;4.60;;;2.20;;
75512;SDS011;64090;49.770;18.760;2024-03-17T04:24:12;5.50;;;2.10;;
75512;SDS011;64090;49.770;18.760;2024-03-17T04:27:15;9.30;;;2.40;;
75512;SDS011;64090;49.770;18.760;2024-03-17T04:30:18;4.90;;;1.30;;
75512;SDS011;64090;49.770;18.760;2024-03-17T04:33:22;4.70;;;2.40;;
75512;SDS011;64090;49.770;18.760;2024-03-17T04:36:25;3.50;;;2.20;;
75512;SDS011;64090;49.770;18.760;2024-03-17T04:39:29;6.40;;;2.60;;
75512;SDS011;64090;49.770;18.760;2024-03-17T04:42:34;7.20;;;2.30;;
75512;SDS011;64090;49.770;18.760;2024-03-17T04:45:38;6.20;;;2.80;;
75512;SDS011;64090;49.770;18.760;2024-03-17T04:48:41;5.50;;;2.60;;
75512;SDS011;64090;49.770;18.760;2024-03-17T04:51:49;3.40;;;2.10;;
75512;SDS011;64090;49.770;18.760;2024-03-17T04:54:56;4.90;;;2.60;;
75512;SDS011;64090;49.770;18.760;2024-03-17T04:58:02;4.80;;;2.50;;
75512;SDS011;64090;49.770;18.760;2024-03-17T05:01:10;10.10;;;2.50;;
75512;SDS011;64090;49.770;18.760;2024-03-17T05:07:21;5.10;;;3.20;;
75512;SDS011;64090;49.770;18.760;2024-03-17T05:10:30;6.40;;;2.80;;
75512;SDS011;64090;49.770;18.760;2024-03-17T05:13:37;5.30;;;2.60;;
75512;SDS011;64090;49.770;18.760;2024-03-17T05:16:50;5.00;;;3.10;;
75512;SDS011;64090;49.770;18.760;2024-03-17T05:20:01;6.10;;;3.40;;
75512;SDS011;64090;49.770;18.760;2024-03-17T05:23:08;8.20;;;3.50;;
75512;SDS011;64090;49.770;18.760;2024-03-17T05:26:13;6.40;;;3.10;;
75512;SDS011;64090;49.770;18.760;2024-03-17T05:29:16;6.50;;;2.40;;
75512;SDS011;64090;49.770;18.760;2024-03-17T05:32:18;5.20;;;2.60;;
75512;SDS011;64090;49.770;18.760;2024-03-17T05:35:21;5.20;;;3.50;;
75512;SDS011;64090;49.770;18.760;2024-03-17T05:38:24;4.40;;;2.10;;
75512;SDS011;64090;49.770;18.760;2024-03-17T05:41:28;6.30;;;2.80;;
75512;SDS011;64090;49.770;18.760;2024-03-17T05:44:31;4.80;;;2.10;;
75512;SDS011;64090;49.770;18.760;2024-03-17T05:47:51;6.80;;;2.90;;
75512;SDS011;64090;49.770;18.760;2024-03-17T05:50:54;9.20;;;2.60;;
75512;SDS011;64090;49.770;18.760;2024-03-17T05:53:57;4.40;;;2.70;;
75512;SDS011;64090;49.770;18.760;2024-03-17T05:57:00;5.80;;;2.70;;
75512;SDS011;64090;49.770;18.760;2024-03-17T06:00:06;7.40;;;2.80;;
75512;SDS011;64090;49.770;18.760;2024-03-17T06:03:10;9.70;;;2.90;;
75512;SDS011;64090;49.770;18.760;2024-03-17T06:06:12;7.80;;;3.20;;
75512;SDS011;64090;49.770;18.760;2024-03-17T06:09:15;6.20;;;2.50;;
75512;SDS011;64090;49.770;18.760;2024-03-17T06:12:21;8.00;;;2.60;;
75512;SDS011;64090;49.770;18.760;2024-03-17T06:15:24;4.40;;;2.00;;
75512;SDS011;64090;49.770;18.760;2024-03-17T06:18:28;6.10;;;2.20;;
75512;SDS011;64090;49.770;18.760;2024-03-17T06:21:31;6.40;;;1.80;;
75512;SDS011;64090;49.770;18.760;2024-03-17T06:24:33;5.20;;;2.10;;
75512;SDS011;64090;49.770;18.760;2024-03-17T06:27:36;3.40;;;1.40;;
75512;SDS011;64090;49.770;18.760;2024-03-17T06:30:41;6.40;;;2.00;;
75512;SDS011;64090;49.770;18.760;2024-03-17T06:33:50;3.80;;;2.00;;
75512;SDS011;64090;49.770;18.760;2024-03-17T06:36:53;3.80;;;1.70;;
75512;SDS011;64090;49.770;18.760;2024-03-17T06:39:55;4.90;;;2.20;;
75512;SDS011;64090;49.770;18.760;2024-03-17T06:42:58;9.30;;;2.20;;
75512;SDS011;64090;49.770;18.760;2024-03-17T06:46:01;4.40;;;2.20;;
75512;SDS011;64090;49.770;18.760;2024-03-17T06:49:04;2.40;;;1.70;;
75512;SDS011;64090;49.770;18.760;2024-03-17T06:52:06;2.80;;;1.20;;
75512;SDS011;64090;49.770;18.760;2024-03-17T06:55:09;4.20;;;1.10;;
75512;SDS011;64090;49.770;18.760;2024-03-17T06:58:12;4.00;;;1.30;;
75512;SDS011;64090;49.770;18.760;2024-03-17T07:01:15;2.20;;;1.00;;
75512;SDS011;64090;49.770;18.760;2024-03-17T07:04:18;6.60;;;2.30;;
75512;SDS011;64090;49.770;18.760;2024-03-17T07:07:20;7.00;;;2.80;;
75512;SDS011;64090;49.770;18.760;2024-03-17T07:10:25;5.00;;;2.20;;
75512;SDS011;64090;49.770;18.760;2024-03-17T07:13:29;5.50;;;3.00;;
75512;SDS011;64090;49.770;18.760;2024-03-17T07:16:33;3.00;;;1.30;;
75512;SDS011;64090;49.770;18.760;2024-03-17T07:19:36;3.40;;;1.10;;
75512;SDS011;64090;49.770;18.760;2024-03-17T07:22:38;4.70;;;1.40;;
75512;SDS011;64090;49.770;18.760;2024-03-17T07:25:41;4.50;;;1.40;;
75512;SDS011;64090;49.770;18.760;2024-03-17T07:28:46;3.90;;;1.40;;
75512;SDS011;64090;49.770;18.760;2024-03-17T07:31:48;2.40;;;1.10;;
75512;SDS011;64090;49.770;18.760;2024-03-17T07:34:51;5.60;;;1.80;;
75512;SDS011;64090;49.770;18.760;2024-03-17T07:37:54;3.10;;;1.00;;
75512;SDS011;64090;49.770;18.760;2024-03-17T07:41:04;4.70;;;2.00;;
75512;SDS011;64090;49.770;18.760;2024-03-17T07:44:08;4.50;;;1.40;;
75512;SDS011;64090;49.770;18.760;2024-03-17T07:47:11;7.30;;;2.10;;
75512;SDS011;64090;49.770;18.760;2024-03-17T07:50:14;3.80;;;1.40;;
75512;SDS011;64090;49.770;18.760;2024-03-17T07:53:16;4.70;;;2.40;;
75512;SDS011;64090;49.770;18.760;2024-03-17T07:56:20;4.70;;;2.30;;
75512;SDS011;64090;49.770;18.760;2024-03-17T07:59:23;3.90;;;1.60;;
75512;SDS011;64090;49.770;18.760;2024-03-17T08:02:26;3.90;;;1.60;;
75512;SDS011;64090;49.770;18.760;2024-03-17T08:05:28;4.60;;;1.30;;
75512;SDS011;64090;49.770;18.760;2024-03-17T08:08:31;3.40;;;1.40;;
75512;SDS011;64090;49.770;18.760;2024-03-17T08:11:35;2.90;;;0.80;;
75512;SDS011;64090;49.770;18.760;2024-03-17T08:14:38;2.60;;;1.40;;
75512;SDS011;64090;49.770;18.760;2024-03-17T08:17:41;6.40;;;2.70;;
75512;SDS011;64090;49.770;18.760;2024-03-17T08:20:43;3.10;;;1.20;;
75512;SDS011;64090;49.770;18.760;2024-03-17T08:23:46;4.00;;;2.10;;
75512;SDS011;64090;49.770;18.760;2024-03-17T08:26:49;6.20;;;2.60;;
75512;SDS011;64090;49.770;18.760;2024-03-17T08:29:52;6.90;;;2.00;;
75512;SDS011;64090;49.770;18.760;2024-03-17T08:32:54;7.20;;;3.60;;
75512;SDS011;64090;49.770;18.760;2024-03-17T08:36:03;2.60;;;1.10;;
75512;SDS011;64090;49.770;18.760;2024-03-17T08:39:07;2.60;;;0.90;;
75512;SDS011;64090;49.770;18.760;2024-03-17T08:42:13;3.90;;;2.30;;
75512;SDS011;64090;49.770;18.760;2024-03-17T08:45:16;3.50;;;1.30;;
75512;SDS011;64090;49.770;18.760;2024-03-17T08:48:18;2.10;;;0.70;;
75512;SDS011;64090;49.770;18.760;2024-03-17T08:51:21;4.50;;;1.10;;
75512;SDS011;64090;49.770;18.760;2024-03-17T08:54:24;5.50;;;1.10;;
75512;SDS011;64090;49.770;18.760;2024-03-17T08:57:26;2.90;;;1.10;;
75512;SDS011;64090;49.770;18.760;2024-03-17T09:00:29;2.40;;;1.20;;
75512;SDS011;64090;49.770;18.760;2024-03-17T09:03:33;3.10;;;1.50;;
75512;SDS011;64090;49.770;18.760;2024-03-17T09:06:39;2.50;;;1.10;;
75512;SDS011;64090;49.770;18.760;2024-03-17T09:09:46;4.20;;;1.30;;
75512;SDS011;64090;49.770;18.760;2024-03-17T09:12:50;2.50;;;1.00;;
75512;SDS011;64090;49.770;18.760;2024-03-17T09:15:56;2.00;;;1.00;;
75512;SDS011;64090;49.770;18.760;2024-03-17T09:19:02;4.40;;;1.00;;
75512;SDS011;64090;49.770;18.760;2024-03-17T09:22:04;3.40;;;1.70;;
75512;SDS011;64090;49.770;18.760;2024-03-17T09:25:07;1.70;;;1.50;;
75512;SDS011;64090;49.770;18.760;2024-03-17T09:28:11;3.50;;;0.90;;
75512;SDS011;64090;49.770;18.760;2024-03-17T09:31:13;1.80;;;0.60;;
75512;SDS011;64090;49.770;18.760;2024-03-17T09:34:17;3.00;;;1.30;;
75512;SDS011;64090;49.770;18.760;2024-03-17T09:37:19;3.10;;;1.10;;
75512;SDS011;64090;49.770;18.760;2024-03-17T09:40:24;3.70;;;1.20;;
75512;SDS011;64090;49.770;18.760;2024-03-17T09:43:28;4.00;;;1.20;;
75512;SDS011;64090;49.770;18.760;2024-03-17T09:46:34;2.90;;;1.20;;
75512;SDS011;64090;49.770;18.760;2024-03-17T09:49:38;4.90;;;1.30;;
75512;SDS011;64090;49.770;18.760;2024-03-17T09:52:42;4.80;;;1.20;;
75512;SDS011;64090;49.770;18.760;2024-03-17T09:55:50;3.90;;;1.30;;
75512;SDS011;64090;49.770;18.760;2024-03-17T09:58:55;2.20;;;1.00;;
75512;SDS011;64090;49.770;18.760;2024-03-17T10:02:00;1.10;;;0.90;;
75512;SDS011;64090;49.770;18.760;2024-03-17T10:05:08;3.80;;;1.20;;
75512;SDS011;64090;49.770;18.760;2024-03-17T10:08:22;2.60;;;1.30;;
75512;SDS011;64090;49.770;18.760;2024-03-17T10:11:33;3.40;;;1.50;;
75512;SDS011;64090;49.770;18.760;2024-03-17T10:14:41;2.00;;;1.00;;
75512;SDS011;64090;49.770;18.760;2024-03-17T10:18:12;7.70;;;3.20;;
75512;SDS011;64090;49.770;18.760;2024-03-17T10:21:28;4.70;;;2.00;;
75512;SDS011;64090;49.770;18.760;2024-03-17T10:24:31;3.50;;;1.90;;
75512;SDS011;64090;49.770;18.760;2024-03-17T10:27:42;3.60;;;1.70;;
75512;SDS011;64090;49.770;18.760;2024-03-17T10:30:57;3.40;;;1.40;;
75512;SDS011;64090;49.770;18.760;2024-03-17T10:34:02;0.80;;;0.60;;
75512;SDS011;64090;49.770;18.760;2024-03-17T10:37:20;3.90;;;1.10;;
75512;SDS011;64090;49.770;18.760;2024-03-17T10:40:32;2.40;;;0.90;;
75512;SDS011;64090;49.770;18.760;2024-03-17T10:43:40;2.40;;;2.20;;
75512;SDS011;64090;49.770;18.760;2024-03-17T10:46:44;2.80;;;1.00;;
75512;SDS011;64090;49.770;18.760;2024-03-17T10:49:53;2.80;;;0.80;;
75512;SDS011;64090;49.770;18.760;2024-03-17T10:53:01;3.50;;;1.20;;
75512;SDS011;64090;49.770;18.760;2024-03-17T10:56:06;1.80;;;1.00;;
75512;SDS011;64090;49.770;18.760;2024-03-17T10:59:12;1.40;;;0.70;;
75512;SDS011;64090;49.770;18.760;2024-03-17T11:05:35;8.60;;;4.70;;
75512;SDS011;64090;49.770;18.760;2024-03-17T11:08:40;12.70;;;6.70;;
75512;SDS011;64090;49.770;18.760;2024-03-17T11:11:45;3.40;;;1.40;;
75512;SDS011;64090;49.770;18.760;2024-03-17T11:14:49;5.20;;;2.40;;
75512;SDS011;64090;49.770;18.760;2024-03-17T11:17:53;2.20;;;0.60;;
75512;SDS011;64090;49.770;18.760;2024-03-17T11:21:20;3.90;;;3.30;;
75512;SDS011;64090;49.770;18.760;2024-03-17T11:24:26;4.70;;;1.40;;
75512;SDS011;64090;49.770;18.760;2024-03-17T11:27:39;3.60;;;1.00;;
75512;SDS011;64090;49.770;18.760;2024-03-17T11:30:43;2.80;;;0.90;;
75512;SDS011;64090;49.770;18.760;2024-03-17T11:34:27;3.40;;;1.70;;
75512;SDS011;64090;49.770;18.760;2024-03-17T11:37:43;1.80;;;0.50;;
75512;SDS011;64090;49.770;18.760;2024-03-17T11:40:46;3.30;;;1.30;;
75512;SDS011;64090;49.770;18.760;2024-03-17T11:43:49;2.00;;;1.10;;
75512;SDS011;64090;49.770;18.760;2024-03-17T11:47:02;2.70;;;1.20;;
75512;SDS011;64090;49.770;18.760;2024-03-17T11:50:11;2.60;;;1.20;;
75512;SDS011;64090;49.770;18.760;2024-03-17T11:53:16;4.00;;;2.00;;
75512;SDS011;64090;49.770;18.760;2024-03-17T11:56:23;4.80;;;1.20;;
75512;SDS011;64090;49.770;18.760;2024-03-17T11:59:27;3.60;;;2.10;;
75512;SDS011;64090;49.770;18.760;2024-03-17T12:02:33;3.40;;;1.60;;
75512;SDS011;64090;49.770;18.760;2024-03-17T12:05:39;3.20;;;1.50;;
75512;SDS011;64090;49.770;18.760;2024-03-17T12:08:44;3.10;;;1.40;;
75512;SDS011;64090;49.770;18.760;2024-03-17T12:11:50;5.00;;;2.40;;
75512;SDS011;64090;49.770;18.760;2024-03-17T12:15:01;2.40;;;1.10;;
75512;SDS011;64090;49.770;18.760;2024-03-17T12:18:19;5.50;;;2.30;;
75512;SDS011;64090;49.770;18.760;2024-03-17T12:21:24;2.00;;;0.90;;
75512;SDS011;64090;49.770;18.760;2024-03-17T12:24:32;4.40;;;2.80;;
75512;SDS011;64090;49.770;18.760;2024-03-17T12:27:36;2.70;;;1.40;;
75512;SDS011;64090;49.770;18.760;2024-03-17T12:30:41;5.70;;;2.80;;
75512;SDS011;64090;49.770;18.760;2024-03-17T12:33:44;1.80;;;1.10;;
75512;SDS011;64090;49.770;18.760;2024-03-17T12:36:51;3.80;;;1.40;;
75512;SDS011;64090;49.770;18.760;2024-03-17T12:39:57;3.50;;;1.40;;
75512;SDS011;64090;49.770;18.760;2024-03-17T12:43:03;7.10;;;3.30;;
75512;SDS011;64090;49.770;18.760;2024-03-17T12:46:13;4.00;;;2.10;;
75512;SDS011;64090;49.770;18.760;2024-03-17T12:49:18;3.40;;;1.70;;
75512;SDS011;64090;49.770;18.760;2024-03-17T12:55:28;3.10;;;1.00;;
75512;SDS011;64090;49.770;18.760;2024-03-17T12:58:50;2.00;;;0.90;;
75512;SDS011;64090;49.770;18.760;2024-03-17T13:02:13;3.40;;;1.20;;
75512;SDS011;64090;49.770;18.760;2024-03-17T13:05:18;3.80;;;1.10;;
75512;SDS011;64090;49.770;18.760;2024-03-17T13:08:24;2.70;;;1.40;;
75512;SDS011;64090;49.770;18.760;2024-03-17T13:11:28;3.40;;;1.30;;
75512;SDS011;64090;49.770;18.760;2024-03-17T13:14:35;2.20;;;0.90;;
75512;SDS011;64090;49.770;18.760;2024-03-17T13:17:38;5.30;;;1.90;;
75512;SDS011;64090;49.770;18.760;2024-03-17T13:20:43;2.90;;;1.50;;
75512;SDS011;64090;49.770;18.760;2024-03-17T13:23:50;5.10;;;2.80;;
75512;SDS011;64090;49.770;18.760;2024-03-17T13:26:55;3.90;;;1.80;;
75512;SDS011;64090;49.770;18.760;2024-03-17T13:30:05;4.60;;;1.90;;
75512;SDS011;64090;49.770;18.760;2024-03-17T13:33:11;3.30;;;1.30;;
75512;SDS011;64090;49.770;18.760;2024-03-17T13:36:16;2.70;;;1.00;;
75512;SDS011;64090;49.770;18.760;2024-03-17T13:39:20;2.20;;;0.90;;
75512;SDS011;64090;49.770;18.760;2024-03-17T13:42:24;3.20;;;1.80;;
75512;SDS011;64090;49.770;18.760;2024-03-17T13:45:37;3.00;;;1.20;;
75512;SDS011;64090;49.770;18.760;2024-03-17T13:48:46;2.10;;;1.20;;
75512;SDS011;64090;49.770;18.760;2024-03-17T13:51:54;6.30;;;2.50;;
75512;SDS011;64090;49.770;18.760;2024-03-17T13:55:14;6.00;;;3.00;;
75512;SDS011;64090;49.770;18.760;2024-03-17T13:58:22;2.70;;;1.60;;
75512;SDS011;64090;49.770;18.760;2024-03-17T14:01:26;5.70;;;2.70;;
75512;SDS011;64090;49.770;18.760;2024-03-17T14:04:34;3.70;;;1.50;;
75512;SDS011;64090;49.770;18.760;2024-03-17T14:07:41;4.80;;;2.70;;
75512;SDS011;64090;49.770;18.760;2024-03-17T14:10:50;3.60;;;2.40;;
75512;SDS011;64090;49.770;18.760;2024-03-17T14:13:54;3.00;;;1.30;;
75512;SDS011;64090;49.770;18.760;2024-03-17T14:17:01;4.80;;;3.10;;
75512;SDS011;64090;49.770;18.760;2024-03-17T14:20:08;3.70;;;2.00;;
75512;SDS011;64090;49.770;18.760;2024-03-17T14:23:14;8.50;;;3.80;;
75512;SDS011;64090;49.770;18.760;2024-03-17T14:26:22;3.40;;;1.80;;
75512;SDS011;64090;49.770;18.760;2024-03-17T14:29:26;3.50;;;1.60;;
75512;SDS011;64090;49.770;18.760;2024-03-17T14:32:32;5.00;;;1.80;;
75512;SDS011;64090;49.770;18.760;2024-03-17T14:35:35;3.30;;;1.50;;
75512;SDS011;64090;49.770;18.760;2024-03-17T14:38:40;3.40;;;1.90;;
75512;SDS011;64090;49.770;18.760;2024-03-17T14:41:45;5.90;;;1.70;;
75512;SDS011;64090;49.770;18.760;2024-03-17T14:44:49;3.70;;;1.10;;
75512;SDS011;64090;49.770;18.760;2024-03-17T14:47:52;4.50;;;2.40;;
75512;SDS011;64090;49.770;18.760;2024-03-17T14:50:56;4.20;;;2.00;;
75512;SDS011;64090;49.770;18.760;2024-03-17T14:53:59;2.90;;;1.30;;
75512;SDS011;64090;49.770;18.760;2024-03-17T14:57:03;4.80;;;1.90;;
75512;SDS011;64090;49.770;18.760;2024-03-17T15:00:10;2.60;;;1.50;;
75512;SDS011;64090;49.770;18.760;2024-03-17T15:03:22;6.00;;;2.30;;
75512;SDS011;64090;49.770;18.760;2024-03-17T15:06:30;2.90;;;1.50;;
75512;SDS011;64090;49.770;18.760;2024-03-17T15:09:33;4.40;;;1.90;;
75512;SDS011;64090;49.770;18.760;2024-03-17T15:12:37;3.00;;;1.20;;
75512;SDS011;64090;49.770;18.760;2024-03-17T15:15:42;4.00;;;1.90;;
75512;SDS011;64090;49.770;18.760;2024-03-17T15:18:46;4.10;;;1.70;;
75512;SDS011;64090;49.770;18.760;2024-03-17T15:21:49;4.70;;;1.50;;
75512;SDS011;64090;49.770;18.760;2024-03-17T15:24:53;3.10;;;1.50;;
75512;SDS011;64090;49.770;18.760;2024-03-17T15:27:57;4.00;;;1.70;;
75512;SDS011;64090;49.770;18.760;2024-03-17T15:31:03;4.30;;;2.40;;
75512;SDS011;64090;49.770;18.760;2024-03-17T15:34:06;5.70;;;2.60;;
75512;SDS011;64090;49.770;18.760;2024-03-17T15:37:10;5.70;;;2.40;;
75512;SDS011;64090;49.770;18.760;2024-03-17T15:40:13;6.50;;;2.60;;
75512;SDS011;64090;49.770;18.760;2024-03-17T15:43:19;5.60;;;2.50;;
75512;SDS011;64090;49.770;18.760;2024-03-17T15:46:23;6.60;;;3.00;;
75512;SDS011;64090;49.770;18.760;2024-03-17T15:49:26;5.00;;;2.30;;
75512;SDS011;64090;49.770;18.760;2024-03-17T15:52:30;4.40;;;2.00;;
75512;SDS011;64090;49.770;18.760;2024-03-17T15:55:33;4.90;;;2.10;;
75512;SDS011;64090;49.770;18.760;2024-03-17T15:58:36;5.50;;;1.90;;
75512;SDS011;64090;49.770;18.760;2024-03-17T16:01:45;6.60;;;2.60;;
75512;SDS011;64090;49.770;18.760;2024-03-17T16:04:48;4.30;;;2.20;;
75512;SDS011;64090;49.770;18.760;2024-03-17T16:07:58;8.20;;;2.90;;
75512;SDS011;64090;49.770;18.760;2024-03-17T16:11:04;7.50;;;3.30;;
75512;SDS011;64090;49.770;18.760;2024-03-17T16:14:09;6.10;;;3.00;;
75512;SDS011;64090;49.770;18.760;2024-03-17T16:17:13;6.80;;;3.10;;
75512;SDS011;64090;49.770;18.760;2024-03-17T16:23:59;7.80;;;3.20;;
75512;SDS011;64090;49.770;18.760;2024-03-17T16:30:07;8.10;;;3.50;;
75512;SDS011;64090;49.770;18.760;2024-03-17T16:33:14;5.80;;;2.70;;
75512;SDS011;64090;49.770;18.760;2024-03-17T16:36:19;6.10;;;3.40;;
75512;SDS011;64090;49.770;18.760;2024-03-17T16:39:24;5.30;;;2.70;;
75512;SDS011;64090;49.770;18.760;2024-03-17T16:42:28;8.50;;;3.90;;
75512;SDS011;64090;49.770;18.760;2024-03-17T16:45:30;11.60;;;4.50;;
75512;SDS011;64090;49.770;18.760;2024-03-17T16:48:34;8.20;;;4.70;;
75512;SDS011;64090;49.770;18.760;2024-03-17T16:51:38;9.40;;;4.50;;
75512;SDS011;64090;49.770;18.760;2024-03-17T16:54:42;10.00;;;5.30;;
75512;SDS011;64090;49.770;18.760;2024-03-17T16:57:45;6.80;;;4.30;;
75512;SDS011;64090;49.770;18.760;2024-03-17T17:00:47;5.90;;;4.40;;
75512;SDS011;64090;49.770;18.760;2024-03-17T17:03:53;9.40;;;4.70;;
75512;SDS011;64090;49.770;18.760;2024-03-17T17:06:58;5.20;;;3.80;;
75512;SDS011;64090;49.770;18.760;2024-03-17T17:10:02;9.70;;;5.70;;
75512;SDS011;64090;49.770;18.760;2024-03-17T17:13:05;6.20;;;3.70;;
75512;SDS011;64090;49.770;18.760;2024-03-17T17:16:10;8.40;;;4.90;;
75512;SDS011;64090;49.770;18.760;2024-03-17T17:19:14;9.10;;;3.90;;
75512;SDS011;64090;49.770;18.760;2024-03-17T17:22:17;9.90;;;4.00;;
75512;SDS011;64090;49.770;18.760;2024-03-17T17:25:20;6.40;;;4.00;;
75512;SDS011;64090;49.770;18.760;2024-03-17T17:28:26;9.20;;;4.10;;
75512;SDS011;64090;49.770;18.760;2024-03-17T17:31:31;8.00;;;3.30;;
75512;SDS011;64090;49.770;18.760;2024-03-17T17:34:34;7.80;;;3.70;;
75512;SDS011;64090;49.770;18.760;2024-03-17T17:37:40;10.40;;;4.50;;
75512;SDS011;64090;49.770;18.760;2024-03-17T17:40:43;10.10;;;4.80;;
75512;SDS011;64090;49.770;18.760;2024-03-17T17:43:48;8.90;;;3.70;;
75512;SDS011;64090;49.770;18.760;2024-03-17T17:46:52;5.80;;;3.80;;
75512;SDS011;64090;49.770;18.760;2024-03-17T17:49:56;8.70;;;4.50;;
75512;SDS011;64090;49.770;18.760;2024-03-17T17:53:00;8.00;;;3.50;;
75512;SDS011;64090;49.770;18.760;2024-03-17T17:56:04;6.40;;;3.50;;
75512;SDS011;64090;49.770;18.760;2024-03-17T17:59:09;9.50;;;4.20;;
75512;SDS011;64090;49.770;18.760;2024-03-17T18:02:13;8.20;;;4.80;;
75512;SDS011;64090;49.770;18.760;2024-03-17T18:05:16;8.80;;;4.60;;
75512;SDS011;64090;49.770;18.760;2024-03-17T18:08:20;7.40;;;3.90;;
75512;SDS011;64090;49.770;18.760;2024-03-17T18:11:23;7.50;;;5.40;;
75512;SDS011;64090;49.770;18.760;2024-03-17T18:14:26;12.00;;;6.00;;
75512;SDS011;64090;49.770;18.760;2024-03-17T18:17:31;14.70;;;6.80;;
75512;SDS011;64090;49.770;18.760;2024-03-17T18:20:34;15.20;;;7.90;;
75512;SDS011;64090;49.770;18.760;2024-03-17T18:23:37;11.30;;;5.80;;
75512;SDS011;64090;49.770;18.760;2024-03-17T18:26:44;16.00;;;7.70;;
75512;SDS011;64090;49.770;18.760;2024-03-17T18:29:47;14.30;;;6.90;;
75512;SDS011;64090;49.770;18.760;2024-03-17T18:32:50;20.40;;;8.40;;